createdAt,value
2018-02-12T00:00:39.132Z,16.65
2018-02-12T00:03:07.367Z,15.70
2018-02-12T00:05:34.897Z,17.20
2018-02-12T00:08:02.324Z,17.25
2018-02-12T00:10:29.783Z,16.75
2018-02-12T00:12:57.271Z,16.50
2018-02-12T00:15:24.847Z,17.33
2018-02-12T00:17:52.335Z,15.85
2018-02-12T00:20:19.888Z,17.15
2018-02-12T00:22:47.368Z,16.45
2018-02-12T00:25:14.924Z,16.42
2018-02-12T00:27:42.526Z,15.88
2018-02-12T00:30:09.992Z,13.85
2018-02-12T00:32:37.542Z,13.90
2018-02-12T00:35:05.211Z,14.82
2018-02-12T00:37:32.676Z,16.00
2018-02-12T00:40:00.148Z,16.17
2018-02-12T00:42:27.631Z,15.27
2018-02-12T00:44:55.096Z,15.70
2018-02-12T00:47:22.663Z,16.27
2018-02-12T00:49:50.233Z,16.85
2018-02-12T00:52:17.696Z,17.15
2018-02-12T00:54:45.184Z,17.05
2018-02-12T00:57:12.651Z,16.25
2018-02-12T00:59:40.212Z,17.40
2018-02-12T01:02:07.684Z,17.40
2018-02-12T01:04:35.147Z,17.17
2018-02-12T01:07:02.620Z,17.40
2018-02-12T01:09:30.088Z,18.65
2018-02-12T01:11:57.556Z,18.67
2018-02-12T01:14:25.028Z,20.55
2018-02-12T01:16:52.500Z,20.08
2018-02-12T01:19:19.968Z,20.50
2018-02-12T01:21:47.445Z,21.05
2018-02-12T01:24:15.019Z,21.25
2018-02-12T01:26:42.680Z,20.48
2018-02-12T01:29:10.140Z,20.88
2018-02-12T01:31:37.624Z,21.70
2018-02-12T01:34:05.192Z,22.37
2018-02-12T01:36:32.672Z,20.88
2018-02-12T01:39:00.278Z,21.30
2018-02-12T01:41:27.703Z,20.05
2018-02-12T01:43:55.169Z,20.88
2018-02-12T01:46:22.639Z,21.15
2018-02-12T01:48:50.111Z,19.73
2018-02-12T01:51:17.584Z,19.75
2018-02-12T01:53:45.056Z,20.58
2018-02-12T01:56:12.724Z,19.92
2018-02-12T01:58:40.190Z,21.20
2018-02-12T02:01:07.648Z,20.80
2018-02-12T02:03:35.142Z,20.33
2018-02-12T02:06:02.615Z,20.30
2018-02-12T02:08:30.107Z,21.60
2018-02-12T02:10:58.351Z,20.40
2018-02-12T02:13:25.819Z,18.83
2018-02-12T02:15:53.284Z,19.87
2018-02-12T02:18:20.776Z,20.10
2018-02-12T02:20:48.266Z,21.45
2018-02-12T02:23:16.520Z,21.42
2018-02-12T02:25:43.996Z,19.47
2018-02-12T02:28:11.572Z,18.65
2018-02-12T02:30:39.039Z,19.05
2018-02-12T02:33:06.513Z,20.40
2018-02-12T02:35:33.972Z,21.12
2018-02-12T02:38:01.459Z,19.37
2018-02-12T02:40:29.016Z,19.80
2018-02-12T02:42:56.480Z,19.75
2018-02-12T02:45:38.087Z,20.15
2018-02-12T02:48:05.551Z,20.10
2018-02-12T02:50:33.235Z,21.33
2018-02-12T02:53:00.683Z,21.05
2018-02-12T02:55:28.152Z,21.30
2018-02-12T02:57:55.655Z,21.48
2018-02-12T03:00:23.115Z,21.90
2018-02-12T03:02:50.675Z,22.50
2018-02-12T03:05:18.149Z,21.95
2018-02-12T03:07:45.608Z,23.40
2018-02-12T03:10:13.066Z,24.55
2018-02-12T03:12:40.535Z,26.77
2018-02-12T03:15:08.004Z,24.17
2018-02-12T03:17:35.467Z,25.08
2018-02-12T03:20:02.957Z,26.30
2018-02-12T03:22:30.408Z,25.25
2018-02-12T03:24:57.865Z,24.20
2018-02-12T03:27:25.375Z,23.70
2018-02-12T03:29:52.852Z,22.60
2018-02-12T03:32:20.327Z,23.30
2018-02-12T03:34:47.893Z,23.67
2018-02-12T03:37:15.359Z,21.83
2018-02-12T03:39:42.920Z,21.20
2018-02-12T03:42:10.392Z,20.05
2018-02-12T03:44:37.868Z,19.60
2018-02-12T03:47:05.331Z,19.17
2018-02-12T03:49:32.804Z,18.25
2018-02-12T03:52:00.267Z,17.58
2018-02-12T03:54:27.727Z,17.15
2018-02-12T03:56:55.311Z,16.62
2018-02-12T03:59:22.772Z,17.17
2018-02-12T04:01:50.299Z,17.25
2018-02-12T04:04:17.824Z,16.40
2018-02-12T04:06:45.291Z,18.20
2018-02-12T04:09:12.860Z,16.27
2018-02-12T04:11:40.334Z,16.60
2018-02-12T04:14:07.811Z,15.32
2018-02-12T04:16:35.380Z,14.82
2018-02-12T04:19:02.836Z,14.63
2018-02-12T04:21:30.325Z,16.75
2018-02-12T04:23:57.780Z,14.30
2018-02-12T04:26:25.236Z,13.02
2018-02-12T04:28:52.832Z,12.65
2018-02-12T04:31:20.302Z,11.43
2018-02-12T04:33:47.913Z,11.07
2018-02-12T04:36:16.157Z,10.57
2018-02-12T04:38:43.620Z,9.88
2018-02-12T04:41:11.092Z,9.02
2018-02-12T04:43:38.763Z,8.70
2018-02-12T04:46:06.239Z,8.70
2018-02-12T04:48:33.696Z,7.62
2018-02-12T04:51:01.172Z,8.23
2018-02-12T04:53:28.654Z,6.97
2018-02-12T04:55:56.096Z,7.85
2018-02-12T04:58:23.563Z,8.48
2018-02-12T05:00:51.009Z,8.75
2018-02-12T05:03:18.570Z,8.13
2018-02-12T05:05:46.821Z,7.90
2018-02-12T05:08:14.387Z,8.65
2018-02-12T05:10:41.840Z,8.10
2018-02-12T05:13:09.321Z,8.95
2018-02-12T05:15:36.772Z,9.13
2018-02-12T05:18:04.227Z,10.25
2018-02-12T05:20:31.724Z,11.07
2018-02-12T05:22:59.209Z,10.07
2018-02-12T05:25:26.672Z,11.18
2018-02-12T05:27:54.133Z,11.00
2018-02-12T05:30:21.605Z,11.30
2018-02-12T05:32:49.089Z,11.05
2018-02-12T05:35:16.548Z,11.73
2018-02-12T05:37:44.032Z,11.45
2018-02-12T05:40:11.583Z,14.23
2018-02-12T05:42:39.064Z,13.15
2018-02-12T05:45:06.632Z,14.32
2018-02-12T05:47:34.093Z,14.47
2018-02-12T05:50:01.616Z,13.95
2018-02-12T05:52:29.861Z,15.25
2018-02-12T05:54:57.340Z,15.00
2018-02-12T05:57:24.800Z,14.43
2018-02-12T05:59:52.260Z,14.25
2018-02-12T06:02:20.487Z,14.68
2018-02-12T06:04:48.728Z,15.98
2018-02-12T06:07:16.184Z,15.18
2018-02-12T06:09:43.644Z,14.77
2018-02-12T06:12:11.100Z,15.00
2018-02-12T06:14:38.559Z,14.10
2018-02-12T06:17:06.052Z,14.20
2018-02-12T06:19:33.564Z,14.57
2018-02-12T06:22:01.807Z,14.30
2018-02-12T06:24:29.308Z,13.52
2018-02-12T06:26:56.776Z,13.10
2018-02-12T06:29:24.232Z,12.60
2018-02-12T06:31:51.696Z,13.95
2018-02-12T06:34:19.188Z,12.90
2018-02-12T06:36:46.684Z,12.40
2018-02-12T06:39:14.914Z,13.00
2018-02-12T06:41:42.420Z,12.13
2018-02-12T06:44:09.980Z,12.80
2018-02-12T06:46:37.497Z,12.35
2018-02-12T06:49:06.469Z,13.10
2018-02-12T06:51:34.033Z,12.60
2018-02-12T06:54:01.489Z,11.70
2018-02-12T06:56:28.972Z,10.95
2018-02-12T06:58:56.486Z,11.90
2018-02-12T07:01:24.713Z,11.80
2018-02-12T07:03:52.204Z,12.23
2018-02-12T07:06:19.688Z,12.27
2018-02-12T07:08:47.996Z,10.15
2018-02-12T07:11:16.223Z,11.73
2018-02-12T07:13:43.680Z,11.15
2018-02-12T07:16:11.230Z,12.10
2018-02-12T07:18:39.456Z,10.63
2018-02-12T07:21:06.916Z,12.00
2018-02-12T07:23:34.408Z,10.73
2018-02-12T07:26:01.887Z,11.80
2018-02-12T07:28:29.351Z,10.30
2018-02-12T07:30:56.816Z,10.65
2018-02-12T07:33:24.296Z,10.38
2018-02-12T07:35:51.768Z,10.07
2018-02-12T07:38:19.213Z,9.35
2018-02-12T07:40:46.700Z,9.23
2018-02-12T07:43:14.164Z,9.10
2018-02-12T07:45:41.645Z,9.50
2018-02-12T07:48:09.225Z,10.07
2018-02-12T07:50:36.888Z,9.60
2018-02-12T07:53:04.336Z,9.52
2018-02-12T07:55:31.804Z,9.00
2018-02-12T07:57:59.491Z,9.40
2018-02-12T08:00:26.949Z,8.90
2018-02-12T08:02:54.404Z,8.80
2018-02-12T08:05:21.867Z,8.88
2018-02-12T08:07:49.348Z,9.30
2018-02-12T08:10:16.834Z,8.80
2018-02-12T08:12:44.403Z,8.57
2018-02-12T08:15:11.865Z,8.82
2018-02-12T08:17:39.311Z,8.00
2018-02-12T08:20:06.785Z,8.02
2018-02-12T08:22:34.288Z,8.10
2018-02-12T08:25:01.760Z,8.50
2018-02-12T08:27:29.223Z,7.82
2018-02-12T08:29:56.681Z,6.43
2018-02-12T08:32:24.175Z,6.95
2018-02-12T08:34:51.626Z,6.32
2018-02-12T08:37:19.092Z,5.95
2018-02-12T08:39:46.576Z,5.23
2018-02-12T08:42:14.025Z,4.60
2018-02-12T08:44:41.485Z,4.93
2018-02-12T08:47:08.956Z,5.03
2018-02-12T08:49:36.412Z,4.60
2018-02-12T08:52:03.890Z,4.60
2018-02-12T08:54:31.384Z,4.80
2018-02-12T08:56:58.841Z,4.10
2018-02-12T08:59:26.307Z,4.50
2018-02-12T09:01:53.776Z,4.50
2018-02-12T09:04:21.268Z,5.35
2018-02-12T09:06:48.744Z,5.60
2018-02-12T09:09:16.204Z,5.70
2018-02-12T09:11:44.441Z,5.65
2018-02-12T09:14:11.900Z,6.20
2018-02-12T09:16:40.132Z,6.72
2018-02-12T09:19:07.600Z,7.12
2018-02-12T09:21:35.088Z,7.40
2018-02-12T09:24:02.557Z,7.40
2018-02-12T09:26:30.019Z,7.32
2018-02-12T09:28:57.471Z,8.00
2018-02-12T09:31:24.928Z,7.77
2018-02-12T09:33:52.397Z,8.00
2018-02-12T09:36:19.885Z,7.82
2018-02-12T09:38:47.347Z,8.00
2018-02-12T09:41:14.807Z,8.55
2018-02-12T09:43:42.311Z,8.13
2018-02-12T09:46:09.783Z,9.30
2018-02-12T09:48:37.245Z,9.52
2018-02-12T09:51:04.720Z,9.00
2018-02-12T09:53:32.180Z,9.80
2018-02-12T09:55:59.651Z,9.68
2018-02-12T09:58:27.124Z,9.50
2018-02-12T10:00:54.604Z,10.48
2018-02-12T10:03:22.068Z,9.18
2018-02-12T10:05:49.542Z,9.90
2018-02-12T10:08:17.004Z,9.27
2018-02-12T10:10:44.476Z,8.03
2018-02-12T10:13:11.951Z,9.20
2018-02-12T10:15:39.424Z,9.18
2018-02-12T10:18:06.892Z,8.30
2018-02-12T10:20:34.383Z,9.40
2018-02-12T10:23:04.010Z,8.63
2018-02-12T10:25:29.412Z,7.95
2018-02-12T10:27:56.893Z,7.72
2018-02-12T10:30:24.351Z,7.22
2018-02-12T10:32:51.916Z,7.20
2018-02-12T10:35:19.396Z,7.50
2018-02-12T10:37:46.960Z,6.90
2018-02-12T10:40:14.416Z,6.82
2018-02-12T10:42:41.904Z,6.40
2018-02-12T10:45:09.459Z,6.45
2018-02-12T10:47:36.912Z,7.35
2018-02-12T10:50:04.382Z,6.50
2018-02-12T10:52:31.839Z,6.10
2018-02-12T10:54:59.336Z,6.23
2018-02-12T10:57:26.808Z,6.68
2018-02-12T10:59:54.269Z,6.50
2018-02-12T11:02:21.788Z,6.07
2018-02-12T11:04:50.052Z,5.65
2018-02-12T11:07:17.579Z,6.35
2018-02-12T11:09:45.784Z,6.20
2018-02-12T11:12:13.267Z,6.70
2018-02-12T11:14:40.736Z,6.72
2018-02-12T11:17:08.212Z,6.10
2018-02-12T11:19:35.796Z,6.00
2018-02-12T11:22:03.289Z,5.75
2018-02-12T11:24:31.532Z,6.22
2018-02-12T11:26:59.108Z,5.80
2018-02-12T11:29:26.568Z,5.03
2018-02-12T11:31:54.040Z,5.62
2018-02-12T11:34:21.612Z,5.07
2018-02-12T11:36:49.196Z,5.20
2018-02-12T11:39:16.663Z,5.10
2018-02-12T11:41:44.240Z,4.93
2018-02-12T11:44:11.708Z,4.90
2018-02-12T11:46:39.267Z,4.70
2018-02-12T11:49:06.728Z,4.55
2018-02-12T11:51:34.184Z,6.97
2018-02-12T11:54:01.664Z,4.97
2018-02-12T11:56:29.144Z,5.40
2018-02-12T11:58:56.616Z,4.80
2018-02-12T12:01:24.088Z,4.50
2018-02-12T12:03:51.563Z,3.70
2018-02-12T12:06:19.028Z,4.03
2018-02-12T12:08:47.272Z,7.37
2018-02-12T12:11:14.789Z,22.00
2018-02-12T12:13:42.352Z,8.70
2018-02-12T12:16:09.932Z,13.73
2018-02-12T12:18:37.404Z,7.97
2018-02-12T12:21:04.872Z,5.45
2018-02-12T12:23:33.170Z,4.60
2018-02-12T12:26:00.721Z,5.10
2018-02-12T12:28:28.202Z,5.60
2018-02-12T12:30:55.672Z,5.30
2018-02-12T12:33:23.237Z,6.30
2018-02-12T12:35:50.692Z,5.57
2018-02-12T12:38:18.388Z,7.40
2018-02-12T12:40:45.864Z,10.85
2018-02-12T12:43:13.428Z,16.65
2018-02-12T12:45:40.936Z,17.00
2018-02-12T12:48:08.405Z,14.32
2018-02-12T12:50:35.940Z,5.60
2018-02-12T12:53:03.507Z,4.65
2018-02-12T12:55:31.175Z,5.35
2018-02-12T12:57:58.644Z,4.80
2018-02-12T13:00:26.104Z,4.30
2018-02-12T13:02:53.684Z,4.90
2018-02-12T13:05:21.161Z,3.65
2018-02-12T13:07:48.732Z,4.80
2018-02-12T13:10:16.216Z,6.47
2018-02-12T13:12:43.691Z,6.15
2018-02-12T13:15:11.236Z,6.35
2018-02-12T13:17:38.724Z,6.35
2018-02-12T13:20:06.280Z,4.40
2018-02-12T13:22:33.778Z,4.30
2018-02-12T13:25:01.999Z,3.67
2018-02-12T13:27:29.513Z,3.90
2018-02-12T13:29:56.988Z,3.67
2018-02-12T13:32:24.447Z,4.50
2018-02-12T13:34:51.928Z,3.30
2018-02-12T13:37:19.488Z,4.20
2018-02-12T13:39:46.948Z,3.95
2018-02-12T13:42:14.738Z,4.20
2018-02-12T13:44:42.309Z,4.30
2018-02-12T13:47:09.772Z,4.70
2018-02-12T13:49:37.344Z,5.10
2018-02-12T13:52:04.808Z,4.45
2018-02-12T13:54:32.297Z,3.75
2018-02-12T13:56:59.762Z,4.00
2018-02-12T13:59:27.224Z,4.18
2018-02-12T14:01:54.799Z,3.87
2018-02-12T14:04:22.260Z,4.30
2018-02-12T14:06:49.748Z,3.90
2018-02-12T14:09:17.223Z,3.40
2018-02-12T14:11:44.724Z,3.40
2018-02-12T14:14:12.205Z,3.92
2018-02-12T14:16:39.720Z,4.43
2018-02-12T14:19:07.294Z,3.43
2018-02-12T14:21:34.760Z,3.80
2018-02-12T14:24:02.228Z,3.65
2018-02-12T14:26:29.709Z,3.70
2018-02-12T14:28:57.265Z,3.25
2018-02-12T14:31:24.747Z,3.78
2018-02-12T14:33:52.213Z,3.87
2018-02-12T14:36:19.684Z,3.58
2018-02-12T14:38:47.199Z,3.00
2018-02-12T14:41:14.667Z,3.50
2018-02-12T14:43:42.145Z,3.40
2018-02-12T14:46:09.600Z,3.80
2018-02-12T14:48:37.831Z,3.75
2018-02-12T14:51:05.412Z,3.72
2018-02-12T14:53:32.872Z,3.35
2018-02-12T14:56:00.460Z,3.58
2018-02-12T14:58:27.943Z,3.90
2018-02-12T15:00:55.412Z,3.50
2018-02-12T15:03:22.888Z,3.50
2018-02-12T15:05:50.356Z,4.03
2018-02-12T15:08:17.837Z,4.40
2018-02-12T15:10:46.098Z,3.75
2018-02-12T15:13:13.704Z,3.90
2018-02-12T15:15:41.952Z,3.43
2018-02-12T15:18:09.412Z,4.28
2018-02-12T15:20:36.876Z,4.03
2018-02-12T15:23:04.332Z,3.67
2018-02-12T15:25:31.791Z,4.10
2018-02-12T15:27:59.305Z,3.45
2018-02-12T15:30:26.794Z,4.03
2018-02-12T15:32:54.244Z,3.78
2018-02-12T15:35:21.708Z,3.20
2018-02-12T15:37:49.297Z,3.78
2018-02-12T15:40:16.753Z,3.00
2018-02-12T15:42:44.281Z,3.40
2018-02-12T15:45:11.789Z,3.10
2018-02-12T15:47:39.264Z,3.03
2018-02-12T15:50:06.720Z,3.10
2018-02-12T15:52:34.196Z,3.20
2018-02-12T15:55:01.723Z,2.92
2018-02-12T15:57:29.182Z,3.70
2018-02-12T15:59:57.431Z,3.58
2018-02-12T16:02:24.905Z,3.30
2018-02-12T16:04:52.373Z,3.20
2018-02-12T16:07:20.628Z,3.28
2018-02-12T16:09:48.104Z,3.40
2018-02-12T16:12:15.571Z,3.30
2018-02-12T16:14:43.051Z,3.78
2018-02-12T16:17:10.545Z,3.40
2018-02-12T16:19:38.124Z,3.70
2018-02-12T16:22:05.579Z,4.05
2018-02-12T16:24:33.028Z,4.82
2018-02-12T16:27:00.496Z,4.60
2018-02-12T16:29:28.089Z,4.10
2018-02-12T16:31:55.552Z,3.90
2018-02-12T16:34:23.008Z,4.10
2018-02-12T16:36:50.484Z,4.20
2018-02-12T16:39:17.938Z,4.50
2018-02-12T16:41:45.437Z,4.50
2018-02-12T16:44:12.924Z,4.25
2018-02-12T16:46:40.384Z,5.40
2018-02-12T16:49:09.348Z,4.68
2018-02-12T16:51:36.849Z,4.30
2018-02-12T16:54:04.301Z,4.30
2018-02-12T16:56:32.553Z,4.70
2018-02-12T16:59:00.896Z,5.03
2018-02-12T17:01:28.364Z,4.90
2018-02-12T17:03:55.817Z,4.47
2018-02-12T17:06:23.305Z,4.80
2018-02-12T17:08:50.771Z,4.80
2018-02-12T17:11:18.256Z,5.07
2018-02-12T17:13:46.540Z,4.63
2018-02-12T17:16:13.996Z,5.90
2018-02-12T17:18:41.468Z,5.40
2018-02-12T17:21:08.932Z,5.53
2018-02-12T17:23:36.527Z,5.87
2018-02-12T17:26:03.996Z,7.05
2018-02-12T17:28:31.448Z,6.10
2018-02-12T17:30:58.912Z,7.82
2018-02-12T17:33:26.376Z,6.93
2018-02-12T17:35:53.832Z,6.47
2018-02-12T17:38:21.325Z,8.00
2018-02-12T17:40:48.849Z,6.10
2018-02-12T17:43:17.087Z,6.78
2018-02-12T17:45:44.548Z,5.80
2018-02-12T17:48:12.021Z,8.23
2018-02-12T17:50:39.501Z,7.30
2018-02-12T17:53:07.064Z,6.63
2018-02-12T17:55:34.557Z,6.37
2018-02-12T17:58:02.044Z,6.32
2018-02-12T18:00:30.344Z,7.75
2018-02-12T18:02:58.560Z,9.05
2018-02-12T18:05:26.069Z,7.60
2018-02-12T18:07:55.040Z,6.97
2018-02-12T18:10:22.528Z,6.53
2018-02-12T18:12:50.110Z,6.67
2018-02-12T18:15:17.684Z,6.47
2018-02-12T18:17:45.243Z,6.53
2018-02-12T18:20:12.703Z,7.30
2018-02-12T18:22:40.176Z,6.30
2018-02-12T18:25:07.656Z,7.72
2018-02-12T18:27:35.220Z,6.45
2018-02-12T18:30:02.676Z,6.70
2018-02-12T18:32:30.144Z,7.53
2018-02-12T18:34:57.615Z,7.78
2018-02-12T18:37:25.188Z,7.35
2018-02-12T18:39:52.648Z,6.82
2018-02-12T18:42:20.111Z,7.00
2018-02-12T18:44:47.616Z,6.20
2018-02-12T18:47:15.064Z,5.95
2018-02-12T18:49:42.551Z,6.55
2018-02-12T18:52:10.227Z,7.30
2018-02-12T18:54:37.688Z,8.30
2018-02-12T18:57:05.164Z,6.85
2018-02-12T18:59:32.748Z,8.07
2018-02-12T19:02:00.988Z,8.02
2018-02-12T19:04:28.518Z,8.52
2018-02-12T19:06:56.794Z,6.97
2018-02-12T19:09:24.264Z,7.28
2018-02-12T19:11:51.929Z,6.57
2018-02-12T19:14:19.406Z,7.55
2018-02-12T19:16:46.880Z,7.30
2018-02-12T19:19:14.445Z,7.00
2018-02-12T19:21:41.936Z,6.70
2018-02-12T19:24:10.166Z,6.55
2018-02-12T19:26:37.775Z,5.20
2018-02-12T19:29:05.351Z,5.97
2018-02-12T19:31:32.811Z,6.20
2018-02-12T19:34:00.395Z,6.62
2018-02-12T19:36:27.844Z,5.12
2018-02-12T19:38:55.316Z,5.80
2018-02-12T19:41:22.792Z,5.80
2018-02-12T19:43:50.277Z,5.32
2018-02-12T19:46:17.757Z,6.03
2018-02-12T19:48:45.407Z,5.12
2018-02-12T19:51:12.975Z,5.90
2018-02-12T19:53:40.440Z,5.40
2018-02-12T19:56:07.904Z,5.32
2018-02-12T19:58:35.380Z,4.73
2018-02-12T20:01:02.887Z,6.07
2018-02-12T20:03:31.280Z,5.30
2018-02-12T20:05:58.868Z,4.97
2018-02-12T20:08:26.320Z,4.90
2018-02-12T20:10:54.560Z,6.00
2018-02-12T20:13:22.049Z,6.00
2018-02-12T20:15:49.565Z,5.70
2018-02-12T20:18:17.792Z,4.82
2018-02-12T20:20:45.250Z,5.40
2018-02-12T20:23:12.796Z,5.50
2018-02-12T20:25:40.312Z,5.87
2018-02-12T20:28:07.767Z,6.50
2018-02-12T20:30:35.237Z,5.57
2018-02-12T20:33:02.732Z,5.90
2018-02-12T20:35:30.296Z,5.78
2018-02-12T20:37:57.789Z,6.30
2018-02-12T20:40:25.336Z,6.30
2018-02-12T20:42:52.792Z,6.00
2018-02-12T20:45:20.388Z,6.93
2018-02-12T20:47:47.856Z,7.78
2018-02-12T20:50:15.315Z,6.90
2018-02-12T20:52:42.788Z,6.90
2018-02-12T20:55:10.356Z,6.30
2018-02-12T20:57:37.819Z,7.12
2018-02-12T21:00:05.288Z,7.00
2018-02-12T21:02:32.752Z,6.90
2018-02-12T21:05:00.289Z,7.60
2018-02-12T21:07:27.927Z,8.60
2018-02-12T21:09:56.160Z,7.70
2018-02-12T21:12:23.619Z,8.18
2018-02-12T21:14:51.114Z,8.23
2018-02-12T21:17:18.600Z,8.30
2018-02-12T21:19:46.075Z,8.37
2018-02-12T21:24:52.125Z,9.02
2018-02-12T21:27:20.377Z,9.63
2018-02-12T21:29:47.931Z,9.23
2018-02-12T21:32:15.404Z,10.00
2018-02-12T21:34:42.964Z,8.63
2018-02-12T21:37:10.451Z,9.65
2018-02-12T21:39:37.916Z,9.93
2018-02-12T21:42:05.403Z,10.57
2018-02-12T21:44:32.964Z,11.10
2018-02-12T21:47:00.416Z,10.88
2018-02-12T21:49:27.880Z,12.10
2018-02-12T21:51:55.348Z,11.52
2018-02-12T21:54:22.811Z,11.70
2018-02-12T21:56:50.314Z,11.90
2018-02-12T21:59:17.885Z,13.00
2018-02-12T22:01:45.549Z,13.30
2018-02-12T22:04:13.016Z,13.15
2018-02-12T22:06:40.475Z,14.40
2018-02-12T22:09:07.952Z,13.95
2018-02-12T22:11:35.428Z,14.37
2018-02-12T22:14:02.888Z,14.20
2018-02-12T22:16:30.376Z,14.50
2018-02-12T22:18:57.832Z,15.50
2018-02-12T22:21:25.304Z,14.87
2018-02-12T22:23:52.777Z,15.77
2018-02-12T22:26:20.239Z,15.85
2018-02-12T22:28:47.705Z,14.80
2018-02-12T22:31:15.161Z,14.50
2018-02-12T22:33:42.664Z,15.15
2018-02-12T22:36:10.224Z,15.18
2018-02-12T22:38:37.795Z,14.70
2018-02-12T22:41:05.252Z,14.73
2018-02-12T22:43:32.712Z,14.93
2018-02-12T22:46:00.181Z,14.63
2018-02-12T22:48:27.652Z,15.57
2018-02-12T22:50:55.120Z,15.50
2018-02-12T22:53:22.584Z,15.45
2018-02-12T22:55:50.079Z,16.17
2018-02-12T22:58:17.540Z,16.10
2018-02-12T23:00:44.996Z,15.00
2018-02-12T23:03:12.488Z,14.00
2018-02-12T23:05:39.960Z,15.05
2018-02-12T23:08:07.527Z,15.50
2018-02-12T23:10:35.200Z,14.60
2018-02-12T23:13:02.676Z,16.23
2018-02-12T23:15:33.996Z,15.02
2018-02-12T23:18:01.527Z,16.08
2018-02-12T23:20:29.077Z,15.40
2018-02-12T23:22:56.527Z,15.40
2018-02-12T23:25:24.016Z,15.02
2018-02-12T23:27:51.468Z,15.53
2018-02-12T23:30:18.962Z,15.25
2018-02-12T23:32:46.432Z,15.00
2018-02-12T23:35:14.002Z,14.70
2018-02-12T23:37:41.565Z,14.30
2018-02-12T23:40:09.029Z,13.80
2018-02-12T23:42:36.507Z,14.15
2018-02-12T23:45:03.988Z,14.02
2018-02-12T23:47:31.476Z,14.27
2018-02-12T23:50:00.020Z,14.20
2018-02-12T23:52:27.510Z,13.77
2018-02-12T23:54:55.096Z,12.80
2018-02-12T23:57:22.655Z,13.32
2018-02-12T23:59:50.131Z,13.35
